sensor_id;sensor_type;location;lat;lon;timestamp;pressure;altitude;pressure_sealevel;temperature;humidity
20656;BME280;10487;53.320;8.672;2023-03-19T00:01:03;100919.50;;;7.04;51.65
20656;BME280;10487;53.320;8.672;2023-03-19T00:04:05;100913.59;;;6.99;51.88
20656;BME280;10487;53.320;8.672;2023-03-19T00:07:07;100913.75;;;6.96;51.73
20656;BME280;10487;53.320;8.672;2023-03-19T00:10:09;100912.25;;;6.92;51.97
20656;BME280;10487;53.320;8.672;2023-03-19T00:13:11;100914.28;;;6.87;52.18
20656;BME280;10487;53.320;8.672;2023-03-19T00:16:12;100915.47;;;6.82;51.82
20656;BME280;10487;53.320;8.672;2023-03-19T00:19:14;100916.16;;;6.69;52.00
20656;BME280;10487;53.320;8.672;2023-03-19T00:22:16;100920.31;;;6.58;51.90
20656;BME280;10487;53.320;8.672;2023-03-19T00:25:17;100923.53;;;6.47;52.01
20656;BME280;10487;53.320;8.672;2023-03-19T00:28:19;100921.59;;;6.34;52.15
20656;BME280;10487;53.320;8.672;2023-03-19T00:31:21;100924.69;;;6.26;52.18
20656;BME280;10487;53.320;8.672;2023-03-19T00:34:23;100925.94;;;6.19;52.14
20656;BME280;10487;53.320;8.672;2023-03-19T00:37:24;100926.41;;;6.10;52.33
20656;BME280;10487;53.320;8.672;2023-03-19T00:40:26;100917.09;;;6.03;52.59
20656;BME280;10487;53.320;8.672;2023-03-19T00:43:27;100920.66;;;6.02;52.34
20656;BME280;10487;53.320;8.672;2023-03-19T00:46:29;100918.09;;;6.00;52.27
20656;BME280;10487;53.320;8.672;2023-03-19T00:49:31;100923.53;;;5.97;52.37
20656;BME280;10487;53.320;8.672;2023-03-19T00:52:32;100924.56;;;5.95;52.37
20656;BME280;10487;53.320;8.672;2023-03-19T00:55:35;100924.56;;;5.95;52.50
20656;BME280;10487;53.320;8.672;2023-03-19T00:58:37;100923.69;;;5.94;52.45
20656;BME280;10487;53.320;8.672;2023-03-19T01:01:39;100921.91;;;5.95;52.46
20656;BME280;10487;53.320;8.672;2023-03-19T01:04:40;100917.56;;;5.94;52.51
20656;BME280;10487;53.320;8.672;2023-03-19T01:07:42;100926.69;;;5.88;52.32
20656;BME280;10487;53.320;8.672;2023-03-19T01:10:44;100932.22;;;5.84;52.48
20656;BME280;10487;53.320;8.672;2023-03-19T01:13:46;100927.06;;;5.81;52.59
20656;BME280;10487;53.320;8.672;2023-03-19T01:16:48;100924.66;;;5.76;52.60
20656;BME280;10487;53.320;8.672;2023-03-19T01:19:49;100919.44;;;5.75;52.55
20656;BME280;10487;53.320;8.672;2023-03-19T01:22:51;100917.63;;;5.75;52.68
20656;BME280;10487;53.320;8.672;2023-03-19T01:25:53;100913.22;;;5.76;52.51
20656;BME280;10487;53.320;8.672;2023-03-19T01:28:56;100920.19;;;5.77;52.67
20656;BME280;10487;53.320;8.672;2023-03-19T01:31:58;100914.13;;;5.75;52.52
20656;BME280;10487;53.320;8.672;2023-03-19T01:34:59;100917.72;;;5.74;52.72
20656;BME280;10487;53.320;8.672;2023-03-19T01:38:01;100911.63;;;5.72;52.67
20656;BME280;10487;53.320;8.672;2023-03-19T01:41:03;100907.19;;;5.72;52.66
20656;BME280;10487;53.320;8.672;2023-03-19T01:47:31;100920.38;;;5.74;52.61
20656;BME280;10487;53.320;8.672;2023-03-19T01:50:39;100920.28;;;5.75;52.71
20656;BME280;10487;53.320;8.672;2023-03-19T01:53:45;100917.41;;;5.80;52.70
20656;BME280;10487;53.320;8.672;2023-03-19T01:56:51;100918.16;;;5.82;52.72
20656;BME280;10487;53.320;8.672;2023-03-19T01:59:55;100915.38;;;5.85;52.67
20656;BME280;10487;53.320;8.672;2023-03-19T02:03:00;100913.34;;;5.90;52.72
20656;BME280;10487;53.320;8.672;2023-03-19T02:06:02;100913.19;;;5.93;52.82
20656;BME280;10487;53.320;8.672;2023-03-19T02:09:03;100923.53;;;5.97;52.66
20656;BME280;10487;53.320;8.672;2023-03-19T02:12:06;100906.63;;;6.00;52.86
20656;BME280;10487;53.320;8.672;2023-03-19T02:15:09;100904.59;;;6.05;52.92
20656;BME280;10487;53.320;8.672;2023-03-19T02:18:11;100901.81;;;6.08;52.77
20656;BME280;10487;53.320;8.672;2023-03-19T02:21:17;100897.03;;;6.15;52.83
20656;BME280;10487;53.320;8.672;2023-03-19T02:24:33;100901.91;;;6.22;52.94
20656;BME280;10487;53.320;8.672;2023-03-19T02:27:36;100892.81;;;6.28;52.96
20656;BME280;10487;53.320;8.672;2023-03-19T02:30:37;100897.69;;;6.35;52.96
20656;BME280;10487;53.320;8.672;2023-03-19T02:33:39;100906.94;;;6.44;52.88
20656;BME280;10487;53.320;8.672;2023-03-19T02:36:43;100905.69;;;6.51;52.97
20656;BME280;10487;53.320;8.672;2023-03-19T02:39:55;100901.66;;;6.59;52.98
20656;BME280;10487;53.320;8.672;2023-03-19T02:42:58;100910.97;;;6.66;52.93
20656;BME280;10487;53.320;8.672;2023-03-19T02:46:01;100912.38;;;6.74;53.07
20656;BME280;10487;53.320;8.672;2023-03-19T02:49:03;100911.13;;;6.81;53.11
20656;BME280;10487;53.320;8.672;2023-03-19T02:52:05;100904.81;;;6.83;53.00
20656;BME280;10487;53.320;8.672;2023-03-19T02:55:07;100905.41;;;6.88;53.12
20656;BME280;10487;53.320;8.672;2023-03-19T02:58:10;100900.88;;;6.90;53.05
20656;BME280;10487;53.320;8.672;2023-03-19T03:01:12;100895.41;;;6.93;53.11
20656;BME280;10487;53.320;8.672;2023-03-19T03:04:13;100902.41;;;6.94;53.12
20656;BME280;10487;53.320;8.672;2023-03-19T03:07:16;100909.31;;;6.97;53.22
20656;BME280;10487;53.320;8.672;2023-03-19T03:10:18;100910.09;;;6.99;53.26
20656;BME280;10487;53.320;8.672;2023-03-19T03:13:20;100902.81;;;7.02;53.07
20656;BME280;10487;53.320;8.672;2023-03-19T03:16:22;100912.41;;;7.05;53.36
20656;BME280;10487;53.320;8.672;2023-03-19T03:19:24;100899.03;;;7.06;53.31
20656;BME280;10487;53.320;8.672;2023-03-19T03:22:26;100916.53;;;7.10;53.27
20656;BME280;10487;53.320;8.672;2023-03-19T03:25:27;100914.63;;;7.12;53.15
20656;BME280;10487;53.320;8.672;2023-03-19T03:28:29;100897.69;;;7.15;53.24
20656;BME280;10487;53.320;8.672;2023-03-19T03:31:31;100912.63;;;7.16;53.07
20656;BME280;10487;53.320;8.672;2023-03-19T03:34:33;100925.09;;;7.15;53.42
20656;BME280;10487;53.320;8.672;2023-03-19T03:37:35;100917.94;;;7.16;53.29
20656;BME280;10487;53.320;8.672;2023-03-19T03:40:38;100920.59;;;7.16;53.50
20656;BME280;10487;53.320;8.672;2023-03-19T03:43:40;100925.84;;;7.17;53.38
20656;BME280;10487;53.320;8.672;2023-03-19T03:46:41;100921.28;;;7.19;53.22
20656;BME280;10487;53.320;8.672;2023-03-19T03:49:43;100905.28;;;7.21;53.41
20656;BME280;10487;53.320;8.672;2023-03-19T03:52:45;100906.13;;;7.21;53.55
20656;BME280;10487;53.320;8.672;2023-03-19T03:55:48;100909.66;;;7.22;53.41
20656;BME280;10487;53.320;8.672;2023-03-19T03:58:50;100914.19;;;7.20;53.30
20656;BME280;10487;53.320;8.672;2023-03-19T04:01:52;100919.50;;;7.20;53.44
20656;BME280;10487;53.320;8.672;2023-03-19T04:04:53;100922.91;;;7.22;53.67
20656;BME280;10487;53.320;8.672;2023-03-19T04:07:55;100922.91;;;7.22;53.53
20656;BME280;10487;53.320;8.672;2023-03-19T04:10:57;100925.56;;;7.22;53.55
20656;BME280;10487;53.320;8.672;2023-03-19T04:13:59;100922.91;;;7.22;53.49
20656;BME280;10487;53.320;8.672;2023-03-19T04:17:01;100925.69;;;7.20;53.64
20656;BME280;10487;53.320;8.672;2023-03-19T04:20:03;100925.56;;;7.22;53.60
20656;BME280;10487;53.320;8.672;2023-03-19T04:23:05;100919.34;;;7.23;53.77
20656;BME280;10487;53.320;8.672;2023-03-19T04:26:07;100910.41;;;7.24;53.66
20656;BME280;10487;53.320;8.672;2023-03-19T04:29:08;100921.03;;;7.24;53.50
20656;BME280;10487;53.320;8.672;2023-03-19T04:32:10;100926.34;;;7.24;53.71
20656;BME280;10487;53.320;8.672;2023-03-19T04:35:12;100928.06;;;7.25;53.74
20656;BME280;10487;53.320;8.672;2023-03-19T04:38:13;100925.31;;;7.26;53.78
20656;BME280;10487;53.320;8.672;2023-03-19T04:41:15;100931.31;;;7.30;53.57
20656;BME280;10487;53.320;8.672;2023-03-19T04:44:16;100932.06;;;7.32;53.79
20656;BME280;10487;53.320;8.672;2023-03-19T04:47:18;100925.81;;;7.33;53.94
20656;BME280;10487;53.320;8.672;2023-03-19T04:50:20;100919.66;;;7.32;53.80
20656;BME280;10487;53.320;8.672;2023-03-19T04:53:22;100927.63;;;7.32;53.62
20656;BME280;10487;53.320;8.672;2023-03-19T04:56:24;100938.31;;;7.31;53.70
20656;BME280;10487;53.320;8.672;2023-03-19T04:59:26;100933.00;;;7.31;53.87
20656;BME280;10487;53.320;8.672;2023-03-19T05:02:29;100938.31;;;7.31;53.75
20656;BME280;10487;53.320;8.672;2023-03-19T05:05:31;100940.03;;;7.32;53.87
20656;BME280;10487;53.320;8.672;2023-03-19T05:08:32;100949.63;;;7.34;53.95
20656;BME280;10487;53.320;8.672;2023-03-19T05:11:34;100951.25;;;7.37;53.98
20656;BME280;10487;53.320;8.672;2023-03-19T05:14:35;100958.19;;;7.40;53.80
20656;BME280;10487;53.320;8.672;2023-03-19T05:17:37;100965.97;;;7.43;54.02
20656;BME280;10487;53.320;8.672;2023-03-19T05:20:39;100965.03;;;7.44;53.85
20656;BME280;10487;53.320;8.672;2023-03-19T05:23:41;100958.69;;;7.46;54.04
20656;BME280;10487;53.320;8.672;2023-03-19T05:26:42;100961.34;;;7.46;53.90
20656;BME280;10487;53.320;8.672;2023-03-19T05:29:44;100962.19;;;7.47;54.05
20656;BME280;10487;53.320;8.672;2023-03-19T05:32:47;100959.44;;;7.48;53.82
20656;BME280;10487;53.320;8.672;2023-03-19T05:35:49;100963.06;;;7.47;54.05
20656;BME280;10487;53.320;8.672;2023-03-19T05:38:51;100964.75;;;7.48;53.93
20656;BME280;10487;53.320;8.672;2023-03-19T05:41:53;100963.81;;;7.49;53.96
20656;BME280;10487;53.320;8.672;2023-03-19T05:44:54;100959.53;;;7.47;53.87
20656;BME280;10487;53.320;8.672;2023-03-19T05:47:56;100962.28;;;7.45;53.91
20656;BME280;10487;53.320;8.672;2023-03-19T05:50:57;100957.06;;;7.44;54.01
20656;BME280;10487;53.320;8.672;2023-03-19T05:53:59;100965.88;;;7.44;54.22
20656;BME280;10487;53.320;8.672;2023-03-19T05:57:01;100967.84;;;7.41;54.16
20656;BME280;10487;53.320;8.672;2023-03-19T06:00:06;100965.19;;;7.41;54.11
20656;BME280;10487;53.320;8.672;2023-03-19T06:03:08;100963.50;;;7.40;54.17
20656;BME280;10487;53.320;8.672;2023-03-19T06:06:09;100969.66;;;7.40;54.25
20656;BME280;10487;53.320;8.672;2023-03-19T06:09:11;100974.97;;;7.40;54.26
20656;BME280;10487;53.320;8.672;2023-03-19T06:12:12;100961.78;;;7.39;54.23
20656;BME280;10487;53.320;8.672;2023-03-19T06:15:14;100967.19;;;7.37;54.20
20656;BME280;10487;53.320;8.672;2023-03-19T06:18:17;100971.72;;;7.35;54.25
20656;BME280;10487;53.320;8.672;2023-03-19T06:21:19;100966.47;;;7.33;54.16
20656;BME280;10487;53.320;8.672;2023-03-19T06:24:21;100974.53;;;7.32;54.30
20656;BME280;10487;53.320;8.672;2023-03-19T06:27:22;100982.16;;;7.38;54.46
20656;BME280;10487;53.320;8.672;2023-03-19T06:30:24;100972.13;;;7.43;54.25
20656;BME280;10487;53.320;8.672;2023-03-19T06:33:25;100975.38;;;7.48;54.38
20656;BME280;10487;53.320;8.672;2023-03-19T06:36:32;100984.03;;;7.52;54.48
20656;BME280;10487;53.320;8.672;2023-03-19T06:39:34;100986.53;;;7.55;54.26
20656;BME280;10487;53.320;8.672;2023-03-19T06:42:35;100986.25;;;7.59;54.54
20656;BME280;10487;53.320;8.672;2023-03-19T06:45:37;100987.78;;;7.63;54.50
20656;BME280;10487;53.320;8.672;2023-03-19T06:48:39;100982.28;;;7.66;54.33
20656;BME280;10487;53.320;8.672;2023-03-19T06:51:41;100989.13;;;7.70;54.46
20656;BME280;10487;53.320;8.672;2023-03-19T06:54:42;100991.63;;;7.73;54.41
20656;BME280;10487;53.320;8.672;2023-03-19T06:57:47;100993.06;;;7.79;54.60
20656;BME280;10487;53.320;8.672;2023-03-19T07:00:49;100994.59;;;7.83;54.41
20656;BME280;10487;53.320;8.672;2023-03-19T07:03:51;100988.94;;;7.89;54.58
20656;BME280;10487;53.320;8.672;2023-03-19T07:06:52;100992.19;;;7.94;54.54
20656;BME280;10487;53.320;8.672;2023-03-19T07:09:54;100999.75;;;8.00;54.53
20656;BME280;10487;53.320;8.672;2023-03-19T07:12:56;100997.28;;;8.13;54.49
20656;BME280;10487;53.320;8.672;2023-03-19T07:15:58;101004.78;;;8.20;54.66
20656;BME280;10487;53.320;8.672;2023-03-19T07:19:00;101002.72;;;8.25;54.55
20656;BME280;10487;53.320;8.672;2023-03-19T07:22:01;101008.72;;;8.29;54.49
20656;BME280;10487;53.320;8.672;2023-03-19T07:25:04;101012.88;;;8.33;54.63
20656;BME280;10487;53.320;8.672;2023-03-19T07:28:06;101013.66;;;8.35;54.31
20656;BME280;10487;53.320;8.672;2023-03-19T07:31:07;101005.50;;;8.38;54.67
20656;BME280;10487;53.320;8.672;2023-03-19T07:34:09;101015.03;;;8.42;54.56
20656;BME280;10487;53.320;8.672;2023-03-19T07:37:11;101011.31;;;8.44;54.51
20656;BME280;10487;53.320;8.672;2023-03-19T07:40:12;101013.69;;;8.49;54.75
20656;BME280;10487;53.320;8.672;2023-03-19T07:43:14;101015.22;;;8.53;54.62
20656;BME280;10487;53.320;8.672;2023-03-19T07:46:16;101018.44;;;8.58;54.73
20656;BME280;10487;53.320;8.672;2023-03-19T07:49:18;101019.88;;;8.63;54.54
20656;BME280;10487;53.320;8.672;2023-03-19T07:52:20;101016.94;;;8.68;54.56
20656;BME280;10487;53.320;8.672;2023-03-19T07:55:22;101031.56;;;8.75;54.67
20656;BME280;10487;53.320;8.672;2023-03-19T07:58:24;101026.81;;;8.80;54.55
20656;BME280;10487;53.320;8.672;2023-03-19T08:01:26;101031.78;;;8.86;54.74
20656;BME280;10487;53.320;8.672;2023-03-19T08:04:28;101025.19;;;8.92;54.63
20656;BME280;10487;53.320;8.672;2023-03-19T08:07:30;101023.97;;;8.97;54.50
20656;BME280;10487;53.320;8.672;2023-03-19T08:10:32;101030.81;;;9.01;54.61
20656;BME280;10487;53.320;8.672;2023-03-19T08:13:37;101041.06;;;9.07;54.85
20656;BME280;10487;53.320;8.672;2023-03-19T08:16:39;101037.16;;;9.13;54.65
20656;BME280;10487;53.320;8.672;2023-03-19T08:19:40;101036.88;;;9.17;54.59
20656;BME280;10487;53.320;8.672;2023-03-19T08:22:42;101035.53;;;9.24;54.63
20656;BME280;10487;53.320;8.672;2023-03-19T08:25:44;101037.84;;;9.31;54.62
20656;BME280;10487;53.320;8.672;2023-03-19T08:28:45;101044.50;;;9.38;54.59
20656;BME280;10487;53.320;8.672;2023-03-19T08:31:47;101042.19;;;9.46;54.59
20656;BME280;10487;53.320;8.672;2023-03-19T08:34:49;101038.19;;;9.53;54.69
20656;BME280;10487;53.320;8.672;2023-03-19T08:37:52;101049.22;;;9.61;54.68
20656;BME280;10487;53.320;8.672;2023-03-19T08:40:54;101047.84;;;9.68;54.56
20656;BME280;10487;53.320;8.672;2023-03-19T08:44:02;101045.53;;;9.76;54.62
20656;BME280;10487;53.320;8.672;2023-03-19T08:47:04;101060.91;;;9.85;54.58
20656;BME280;10487;53.320;8.672;2023-03-19T08:50:06;101059.56;;;9.92;54.53
20656;BME280;10487;53.320;8.672;2023-03-19T08:53:09;101053.72;;;10.00;54.50
20656;BME280;10487;53.320;8.672;2023-03-19T08:56:10;101055.00;;;10.07;54.50
20656;BME280;10487;53.320;8.672;2023-03-19T08:59:12;101064.22;;;10.15;54.52
20656;BME280;10487;53.320;8.672;2023-03-19T09:02:13;101062.94;;;10.21;54.61
20656;BME280;10487;53.320;8.672;2023-03-19T09:05:15;101066.06;;;10.27;54.56
20656;BME280;10487;53.320;8.672;2023-03-19T09:08:17;101068.75;;;10.40;54.54
20656;BME280;10487;53.320;8.672;2023-03-19T09:11:18;101067.53;;;10.45;54.55
20656;BME280;10487;53.320;8.672;2023-03-19T09:14:20;101076.28;;;10.47;54.50
20656;BME280;10487;53.320;8.672;2023-03-19T09:17:23;101088.44;;;10.51;54.59
20656;BME280;10487;53.320;8.672;2023-03-19T09:20:24;101082.16;;;10.52;54.42
20656;BME280;10487;53.320;8.672;2023-03-19T09:23:26;101092.59;;;10.55;54.44
20656;BME280;10487;53.320;8.672;2023-03-19T09:26:28;101087.19;;;10.57;54.42
20656;BME280;10487;53.320;8.672;2023-03-19T09:29:30;101084.38;;;10.59;54.36
20656;BME280;10487;53.320;8.672;2023-03-19T09:32:31;101088.78;;;10.60;54.43
20656;BME280;10487;53.320;8.672;2023-03-19T09:35:33;101094.97;;;10.60;54.45
20656;BME280;10487;53.320;8.672;2023-03-19T09:38:35;101089.31;;;10.65;54.60
20656;BME280;10487;53.320;8.672;2023-03-19T09:41:51;101090.81;;;10.69;54.37
20656;BME280;10487;53.320;8.672;2023-03-19T09:45:00;101087.00;;;10.73;54.56
20656;BME280;10487;53.320;8.672;2023-03-19T09:48:12;101085.69;;;10.78;54.67
20656;BME280;10487;53.320;8.672;2023-03-19T09:51:49;101087.84;;;10.86;54.48
20656;BME280;10487;53.320;8.672;2023-03-19T09:54:50;101097.25;;;10.91;54.48
20656;BME280;10487;53.320;8.672;2023-03-19T09:57:56;101103.00;;;10.98;54.54
20656;BME280;10487;53.320;8.672;2023-03-19T10:00:58;101105.38;;;11.02;54.49
20656;BME280;10487;53.320;8.672;2023-03-19T10:11:43;101108.97;;;11.14;54.60
20656;BME280;10487;53.320;8.672;2023-03-19T10:14:50;101106.84;;;11.19;54.30
20656;BME280;10487;53.320;8.672;2023-03-19T10:21:11;101112.50;;;11.27;54.50
20656;BME280;10487;53.320;8.672;2023-03-19T10:24:35;101114.72;;;11.33;54.45
20656;BME280;10487;53.320;8.672;2023-03-19T10:27:39;101116.13;;;11.39;54.42
20656;BME280;10487;53.320;8.672;2023-03-19T10:30:42;101117.06;;;11.38;54.32
20656;BME280;10487;53.320;8.672;2023-03-19T10:37:28;101120.72;;;11.37;54.39
20656;BME280;10487;53.320;8.672;2023-03-19T10:40:41;101123.47;;;11.35;54.01
20656;BME280;10487;53.320;8.672;2023-03-19T10:44:12;101127.66;;;11.39;54.10
20656;BME280;10487;53.320;8.672;2023-03-19T10:47:13;101133.00;;;11.39;54.03
20656;BME280;10487;53.320;8.672;2023-03-19T10:50:17;101133.09;;;11.38;54.28
20656;BME280;10487;53.320;8.672;2023-03-19T10:53:35;101136.75;;;11.37;54.20
20656;BME280;10487;53.320;8.672;2023-03-19T10:56:44;101141.03;;;11.39;54.11
20656;BME280;10487;53.320;8.672;2023-03-19T10:59:47;101146.91;;;11.44;54.34
20656;BME280;10487;53.320;8.672;2023-03-19T11:02:53;101135.00;;;11.48;54.33
20656;BME280;10487;53.320;8.672;2023-03-19T11:06:15;101141.03;;;11.52;54.18
20656;BME280;10487;53.320;8.672;2023-03-19T11:12:34;101139.72;;;11.57;54.03
20656;BME280;10487;53.320;8.672;2023-03-19T11:15:37;101143.25;;;11.58;54.22
20656;BME280;10487;53.320;8.672;2023-03-19T11:18:39;101139.50;;;11.60;54.08
20656;BME280;10487;53.320;8.672;2023-03-19T11:21:41;101151.94;;;11.61;54.30
20656;BME280;10487;53.320;8.672;2023-03-19T11:24:54;101147.31;;;11.63;54.26
20656;BME280;10487;53.320;8.672;2023-03-19T11:28:11;101144.84;;;11.60;54.18
20656;BME280;10487;53.320;8.672;2023-03-19T11:31:21;101145.72;;;11.61;54.38
20656;BME280;10487;53.320;8.672;2023-03-19T11:34:44;101149.03;;;11.64;54.12
20656;BME280;10487;53.320;8.672;2023-03-19T11:38:01;101149.78;;;11.66;54.02
20656;BME280;10487;53.320;8.672;2023-03-19T11:47:46;101143.34;;;11.69;54.22
20656;BME280;10487;53.320;8.672;2023-03-19T11:51:09;101148.78;;;11.67;54.11
20656;BME280;10487;53.320;8.672;2023-03-19T11:58:07;101154.13;;;11.67;54.02
20656;BME280;10487;53.320;8.672;2023-03-19T12:11:32;101164.13;;;11.53;54.18
20656;BME280;10487;53.320;8.672;2023-03-19T12:21:10;101173.28;;;11.36;54.43
20656;BME280;10487;53.320;8.672;2023-03-19T12:24:19;101172.75;;;11.31;54.14
20656;BME280;10487;53.320;8.672;2023-03-19T12:27:31;101168.59;;;11.27;54.30
20656;BME280;10487;53.320;8.672;2023-03-19T12:30:40;101168.81;;;11.24;54.09
20656;BME280;10487;53.320;8.672;2023-03-19T12:34:02;101161.00;;;11.21;54.40
20656;BME280;10487;53.320;8.672;2023-03-19T12:47:08;101160.16;;;11.33;54.28
20656;BME280;10487;53.320;8.672;2023-03-19T12:50:16;101153.19;;;11.43;54.19
20656;BME280;10487;53.320;8.672;2023-03-19T12:53:48;101156.97;;;11.53;54.09
20656;BME280;10487;53.320;8.672;2023-03-19T12:56:59;101160.25;;;11.69;54.04
20656;BME280;10487;53.320;8.672;2023-03-19T13:00:09;101158.03;;;11.87;54.03
20656;BME280;10487;53.320;8.672;2023-03-19T13:07:02;101156.88;;;12.15;54.11
20656;BME280;10487;53.320;8.672;2023-03-19T13:10:11;101149.66;;;12.28;54.11
20656;BME280;10487;53.320;8.672;2023-03-19T13:16:40;101137.22;;;12.63;53.81
20656;BME280;10487;53.320;8.672;2023-03-19T13:19:49;101139.31;;;12.82;53.98
20656;BME280;10487;53.320;8.672;2023-03-19T13:22:59;101133.63;;;12.97;53.86
20656;BME280;10487;53.320;8.672;2023-03-19T13:26:04;101127.19;;;13.11;53.53
20656;BME280;10487;53.320;8.672;2023-03-19T13:29:17;101131.84;;;13.20;53.40
20656;BME280;10487;53.320;8.672;2023-03-19T13:32:28;101135.13;;;13.24;53.59
20656;BME280;10487;53.320;8.672;2023-03-19T13:35:41;101140.75;;;13.32;53.29
20656;BME280;10487;53.320;8.672;2023-03-19T13:38:47;101126.72;;;13.39;53.43
20656;BME280;10487;53.320;8.672;2023-03-19T13:41:51;101135.91;;;13.48;53.35
20656;BME280;10487;53.320;8.672;2023-03-19T13:45:00;101138.09;;;13.54;53.32
20656;BME280;10487;53.320;8.672;2023-03-19T13:51:29;101133.31;;;13.68;53.32
20656;BME280;10487;53.320;8.672;2023-03-19T13:54:37;101134.44;;;13.77;53.36
20656;BME280;10487;53.320;8.672;2023-03-19T13:57:39;101140.13;;;13.84;52.93
20656;BME280;10487;53.320;8.672;2023-03-19T14:03:58;101134.16;;;13.91;52.88
20656;BME280;10487;53.320;8.672;2023-03-19T14:10:25;101136.88;;;13.80;53.15
20656;BME280;10487;53.320;8.672;2023-03-19T14:16:34;101140.13;;;13.84;52.77
20656;BME280;10487;53.320;8.672;2023-03-19T14:19:40;101135.28;;;13.78;52.62
20656;BME280;10487;53.320;8.672;2023-03-19T14:22:54;101139.56;;;13.69;53.06
20656;BME280;10487;53.320;8.672;2023-03-19T14:26:04;101136.75;;;13.59;52.90
20656;BME280;10487;53.320;8.672;2023-03-19T14:29:12;101143.22;;;13.57;52.88
20656;BME280;10487;53.320;8.672;2023-03-19T14:32:17;101142.50;;;13.55;52.86
20656;BME280;10487;53.320;8.672;2023-03-19T14:35:20;101139.09;;;13.53;52.71
20656;BME280;10487;53.320;8.672;2023-03-19T14:38:31;101140.41;;;13.47;52.78
20656;BME280;10487;53.320;8.672;2023-03-19T14:41:39;101141.97;;;13.39;52.77
20656;BME280;10487;53.320;8.672;2023-03-19T14:55:13;101136.09;;;13.34;52.53
20656;BME280;10487;53.320;8.672;2023-03-19T14:58:14;101141.72;;;13.31;53.02
20656;BME280;10487;53.320;8.672;2023-03-19T15:01:17;101133.94;;;13.28;52.78
20656;BME280;10487;53.320;8.672;2023-03-19T15:04:21;101135.97;;;13.24;52.86
20656;BME280;10487;53.320;8.672;2023-03-19T15:07:31;101130.03;;;13.21;52.71
20656;BME280;10487;53.320;8.672;2023-03-19T15:14:29;101148.16;;;13.17;52.75
20656;BME280;10487;53.320;8.672;2023-03-19T15:17:35;101139.03;;;13.20;52.77
20656;BME280;10487;53.320;8.672;2023-03-19T15:20:44;101144.66;;;13.28;52.76
20656;BME280;10487;53.320;8.672;2023-03-19T15:23:47;101147.09;;;13.31;52.73
20656;BME280;10487;53.320;8.672;2023-03-19T15:26:49;101152.31;;;13.32;52.53
20656;BME280;10487;53.320;8.672;2023-03-19T15:29:52;101148.69;;;13.33;52.29
20656;BME280;10487;53.320;8.672;2023-03-19T15:32:54;101153.19;;;13.33;52.50
20656;BME280;10487;53.320;8.672;2023-03-19T15:36:18;101151.47;;;13.32;52.33
20656;BME280;10487;53.320;8.672;2023-03-19T15:39:24;101160.50;;;13.31;52.43
20656;BME280;10487;53.320;8.672;2023-03-19T15:42:28;101152.44;;;13.31;52.52
20656;BME280;10487;53.320;8.672;2023-03-19T15:45:32;101147.91;;;13.31;52.40
20656;BME280;10487;53.320;8.672;2023-03-19T15:48:51;101150.38;;;13.34;52.43
20656;BME280;10487;53.320;8.672;2023-03-19T15:52:04;101153.66;;;13.38;52.53
20656;BME280;10487;53.320;8.672;2023-03-19T15:55:07;101167.06;;;13.38;52.30
20656;BME280;10487;53.320;8.672;2023-03-19T15:58:17;101164.50;;;13.36;52.40
20656;BME280;10487;53.320;8.672;2023-03-19T16:01:20;101172.91;;;13.32;52.31
20656;BME280;10487;53.320;8.672;2023-03-19T16:04:23;101175.94;;;13.27;52.20
20656;BME280;10487;53.320;8.672;2023-03-19T16:10:35;101177.50;;;13.19;51.93
20656;BME280;10487;53.320;8.672;2023-03-19T16:13:39;101178.59;;;13.16;52.13
20656;BME280;10487;53.320;8.672;2023-03-19T16:16:43;101181.41;;;13.15;51.89
20656;BME280;10487;53.320;8.672;2023-03-19T16:22:54;101188.09;;;13.09;52.18
20656;BME280;10487;53.320;8.672;2023-03-19T16:26:04;101189.44;;;13.03;51.83
20656;BME280;10487;53.320;8.672;2023-03-19T16:32:26;101191.13;;;13.04;51.85
20656;BME280;10487;53.320;8.672;2023-03-19T16:35:28;101187.13;;;13.10;52.19
20656;BME280;10487;53.320;8.672;2023-03-19T16:38:42;101187.00;;;13.11;52.13
20656;BME280;10487;53.320;8.672;2023-03-19T16:42:25;101196.25;;;13.07;52.12
20656;BME280;10487;53.320;8.672;2023-03-19T16:45:30;101199.28;;;13.03;51.79
20656;BME280;10487;53.320;8.672;2023-03-19T16:48:32;101204.25;;;12.96;51.73
20656;BME280;10487;53.320;8.672;2023-03-19T16:51:33;101213.63;;;12.91;51.65
20656;BME280;10487;53.320;8.672;2023-03-19T16:54:36;101207.13;;;12.82;51.88
20656;BME280;10487;53.320;8.672;2023-03-19T16:57:37;101213.78;;;12.77;51.80
20656;BME280;10487;53.320;8.672;2023-03-19T17:00:39;101217.91;;;12.70;51.92
20656;BME280;10487;53.320;8.672;2023-03-19T17:03:44;101218.38;;;12.64;51.64
20656;BME280;10487;53.320;8.672;2023-03-19T17:06:47;101225.25;;;12.55;51.93
20656;BME280;10487;53.320;8.672;2023-03-19T17:09:48;101223.13;;;12.47;51.81
20656;BME280;10487;53.320;8.672;2023-03-19T17:12:52;101221.00;;;12.40;52.06
20656;BME280;10487;53.320;8.672;2023-03-19T17:16:05;101224.25;;;12.32;51.92
20656;BME280;10487;53.320;8.672;2023-03-19T17:19:15;101222.03;;;12.26;52.16
20656;BME280;10487;53.320;8.672;2023-03-19T17:22:17;101218.06;;;12.19;51.75
20656;BME280;10487;53.320;8.672;2023-03-19T17:25:19;101224.09;;;12.10;52.22
20656;BME280;10487;53.320;8.672;2023-03-19T17:28:22;101230.22;;;12.00;52.02
20656;BME280;10487;53.320;8.672;2023-03-19T17:31:31;101226.50;;;11.90;52.16
20656;BME280;10487;53.320;8.672;2023-03-19T17:34:34;101233.25;;;11.82;52.13
20656;BME280;10487;53.320;8.672;2023-03-19T17:37:37;101244.50;;;11.75;51.90
20656;BME280;10487;53.320;8.672;2023-03-19T17:40:40;101247.06;;;11.64;51.91
20656;BME280;10487;53.320;8.672;2023-03-19T17:43:42;101246.88;;;11.54;52.34
20656;BME280;10487;53.320;8.672;2023-03-19T17:46:47;101247.56;;;11.44;52.29
20656;BME280;10487;53.320;8.672;2023-03-19T17:49:50;101257.19;;;11.34;52.02
20656;BME280;10487;53.320;8.672;2023-03-19T17:52:52;101253.44;;;11.24;52.11